Time;durP1;ratioP1;P1;durP2;ratioP2;P2;SDS_P1;SDS_P2;PMS_P1;PMS_P2;Temp;Humidity;BMP_temperature;BMP_pressure;BME280_temperature;BME280_humidity;BME280_pressure;Samples;Min_cycle;Max_cycle;Signal;HPM_P1;HPM_P2
2024/04/04 00:00:45;;;;;;;10.00;1.73;;;11.50;99.90;;;;;;4163248;28;20026;-69
2024/04/04 00:02:46;;;;;;;4.00;1.10;;;11.50;99.90;;;;;;4164083;28;20477;-69
2024/04/04 00:04:46;;;;;;;2.92;0.85;;;11.50;99.90;;;;;;4161594;28;20084;-68
2024/04/04 00:06:47;;;;;;;4.35;1.08;;;11.50;99.90;;;;;;4158369;28;20120;-68
2024/04/04 00:08:47;;;;;;;3.25;0.70;;;11.40;99.90;;;;;;4161567;28;20437;-68
2024/04/04 00:10:48;;;;;;;3.35;1.17;;;11.40;99.90;;;;;;4163096;28;20034;-68
2024/04/04 00:12:49;;;;;;;3.40;0.95;;;11.50;99.90;;;;;;4163159;28;20025;-69
2024/04/04 00:14:49;;;;;;;3.05;1.10;;;11.40;99.90;;;;;;4162925;28;20025;-69
2024/04/04 00:16:50;;;;;;;4.97;1.27;;;11.40;99.90;;;;;;4161921;28;20368;-69
2024/04/04 00:18:50;;;;;;;2.28;0.90;;;11.40;99.90;;;;;;4163583;28;20120;-69
2024/04/04 00:20:51;;;;;;;3.92;1.02;;;11.40;99.90;;;;;;4163207;28;20120;-69
2024/04/04 00:22:53;;;;;;;2.10;0.77;;;11.40;99.90;;;;;;4145154;28;20394;-70
2024/04/04 00:24:54;;;;;;;2.72;1.00;;;11.40;99.90;;;;;;4163070;28;20053;-69
2024/04/04 00:26:55;;;;;;;2.55;1.00;;;11.40;99.90;;;;;;4162386;28;20084;-69
2024/04/04 00:28:55;;;;;;;3.17;0.88;;;11.40;99.90;;;;;;4162416;28;20111;-69
2024/04/04 00:30:56;;;;;;;5.32;1.45;;;11.30;99.90;;;;;;4161264;28;20042;-69
2024/04/04 00:32:56;;;;;;;6.15;0.95;;;11.30;99.90;;;;;;4162467;28;20056;-69
2024/04/04 00:34:57;;;;;;;2.97;0.80;;;11.30;99.90;;;;;;4156876;28;20486;-69
2024/04/04 00:36:58;;;;;;;3.38;1.13;;;11.30;99.90;;;;;;4176358;28;20456;-69
2024/04/04 00:38:58;;;;;;;3.88;1.08;;;11.30;99.90;;;;;;4163860;28;20026;-69
2024/04/04 00:40:59;;;;;;;5.13;1.15;;;11.30;99.90;;;;;;4162401;28;20083;-69
2024/04/04 00:42:59;;;;;;;2.72;0.98;;;11.30;99.90;;;;;;4160790;28;20021;-69
2024/04/04 00:45:00;;;;;;;3.53;1.02;;;11.20;99.90;;;;;;4159218;28;20117;-69
2024/04/04 00:47:01;;;;;;;5.63;1.35;;;11.10;99.90;;;;;;4150268;28;20041;-69
2024/04/04 00:49:02;;;;;;;4.75;1.00;;;11.20;99.90;;;;;;4161923;28;20496;-69
2024/04/04 00:51:03;;;;;;;3.83;1.00;;;11.20;99.90;;;;;;4161893;28;20440;-69
2024/04/04 00:53:04;;;;;;;4.63;1.20;;;11.20;99.90;;;;;;4161335;28;20037;-69
2024/04/04 00:55:06;;;;;;;6.93;1.10;;;11.20;99.90;;;;;;4160728;28;20470;-69
2024/04/04 00:57:07;;;;;;;3.43;0.80;;;11.20;99.90;;;;;;4162447;28;20505;-69
2024/04/04 00:59:12;;;;;;;3.95;1.20;;;11.20;99.90;;;;;;4152078;28;20034;-68
2024/04/04 01:01:13;;;;;;;2.17;0.80;;;11.20;99.90;;;;;;4155529;28;20033;-69
2024/04/04 01:03:14;;;;;;;3.00;0.98;;;11.20;99.90;;;;;;4153447;28;20022;-69
2024/04/04 01:05:17;;;;;;;4.03;1.15;;;11.20;99.90;;;;;;4160757;28;20492;-69
2024/04/04 01:07:18;;;;;;;3.95;1.15;;;11.20;99.90;;;;;;4162224;28;20065;-69
2024/04/04 01:09:19;;;;;;;3.65;0.80;;;11.20;99.90;;;;;;4162776;28;20044;-68
2024/04/04 01:11:20;;;;;;;6.25;1.42;;;11.20;99.90;;;;;;4159826;28;20064;-69
2024/04/04 01:13:20;;;;;;;4.07;0.85;;;11.20;99.90;;;;;;4162570;28;20030;-70
2024/04/04 01:15:21;;;;;;;4.20;1.45;;;11.30;99.90;;;;;;4160874;28;20478;-69
2024/04/04 01:17:21;;;;;;;3.92;1.00;;;11.20;99.90;;;;;;4162067;28;20033;-69
2024/04/04 01:19:22;;;;;;;4.72;1.38;;;11.30;99.90;;;;;;4162326;28;20042;-69
2024/04/04 01:21:22;;;;;;;4.50;1.17;;;11.30;99.90;;;;;;4161365;28;20102;-69
2024/04/04 01:23:23;;;;;;;3.40;0.90;;;11.30;99.90;;;;;;4161318;28;20037;-69
2024/04/04 01:25:23;;;;;;;3.03;0.93;;;11.30;99.90;;;;;;4159512;28;20064;-69
2024/04/04 01:27:24;;;;;;;3.58;1.25;;;11.30;99.90;;;;;;4157834;28;20501;-68
2024/04/04 01:29:25;;;;;;;5.88;1.20;;;11.30;99.90;;;;;;4161135;28;20029;-69
2024/04/04 01:31:25;;;;;;;5.10;1.13;;;11.20;99.90;;;;;;4160882;28;20049;-69
2024/04/04 01:33:26;;;;;;;2.42;1.05;;;11.20;99.90;;;;;;4162396;28;20053;-69
2024/04/04 01:35:26;;;;;;;4.30;1.20;;;11.20;99.90;;;;;;4161489;28;20041;-69
2024/04/04 01:37:27;;;;;;;2.95;1.15;;;11.20;99.90;;;;;;4161669;28;20044;-69
2024/04/04 01:39:28;;;;;;;3.70;1.00;;;11.20;99.90;;;;;;4161870;28;20095;-69
2024/04/04 01:41:28;;;;;;;5.85;1.65;;;11.20;99.90;;;;;;4160994;28;20044;-69
2024/04/04 01:43:29;;;;;;;5.03;1.52;;;11.20;99.90;;;;;;4162334;28;20060;-69
2024/04/04 01:45:29;;;;;;;5.07;1.42;;;11.30;99.90;;;;;;4161979;28;20068;-69
2024/04/04 01:47:30;;;;;;;2.13;0.85;;;11.20;99.90;;;;;;4159176;28;20037;-70
2024/04/04 01:49:30;;;;;;;2.97;1.20;;;11.20;99.90;;;;;;4157608;28;20493;-69
2024/04/04 01:51:31;;;;;;;3.30;1.13;;;11.20;99.90;;;;;;4158454;28;20045;-70
2024/04/04 01:53:35;;;;;;;2.30;0.93;;;11.30;99.90;;;;;;4161771;28;20029;-70
2024/04/04 01:55:35;;;;;;;3.53;1.25;;;11.30;99.90;;;;;;4160220;28;20382;-69
2024/04/04 01:57:36;;;;;;;1.75;1.10;;;11.30;99.90;;;;;;4161168;28;20033;-70
2024/04/04 01:59:36;;;;;;;3.28;1.10;;;11.30;99.90;;;;;;4160897;28;20045;-69
2024/04/04 02:01:37;;;;;;;2.60;0.98;;;11.40;99.90;;;;;;4160509;28;20033;-70
2024/04/04 02:03:38;;;;;;;3.47;1.25;;;11.40;99.90;;;;;;4160826;28;20105;-69
2024/04/04 02:05:38;;;;;;;4.95;1.35;;;11.40;99.90;;;;;;4157357;28;20053;-70
2024/04/04 02:07:39;;;;;;;4.22;1.10;;;11.40;99.90;;;;;;4157444;28;20498;-70
2024/04/04 02:09:39;;;;;;;2.95;0.85;;;11.40;99.90;;;;;;4161368;28;20112;-69
2024/04/04 02:11:40;;;;;;;2.60;0.90;;;11.40;99.90;;;;;;4160382;28;20029;-69
2024/04/04 02:13:41;;;;;;;5.18;1.25;;;11.50;99.90;;;;;;4161964;28;20088;-70
2024/04/04 02:15:42;;;;;;;2.67;0.90;;;11.40;99.90;;;;;;4160553;28;20036;-70
2024/04/04 02:17:42;;;;;;;3.83;1.23;;;11.40;99.90;;;;;;4161490;28;20037;-70
2024/04/04 02:19:43;;;;;;;3.80;1.27;;;11.40;99.90;;;;;;4162014;28;20056;-69
2024/04/04 02:21:43;;;;;;;4.05;1.30;;;11.40;99.90;;;;;;4160821;28;20033;-70
2024/04/04 02:23:44;;;;;;;3.63;1.10;;;11.40;99.90;;;;;;4161285;28;20022;-70
2024/04/04 02:25:45;;;;;;;4.75;0.95;;;11.50;99.90;;;;;;4159245;28;20691;-70
2024/04/04 02:27:45;;;;;;;4.35;1.00;;;11.40;99.90;;;;;;4162040;28;20033;-70
2024/04/04 02:29:46;;;;;;;2.83;1.05;;;11.40;99.90;;;;;;4161809;28;20099;-69
2024/04/04 02:31:46;;;;;;;3.10;0.98;;;11.40;99.90;;;;;;4161349;28;20029;-69
2024/04/04 02:33:47;;;;;;;1.95;0.95;;;11.40;99.90;;;;;;4161941;28;20497;-70
2024/04/04 02:35:55;;;;;;;4.18;0.98;;;11.50;99.90;;;;;;4161106;28;20381;-69
2024/04/04 02:37:55;;;;;;;5.18;1.00;;;11.40;99.90;;;;;;4152500;28;20037;-70
2024/04/04 02:39:56;;;;;;;4.60;1.33;;;11.50;99.90;;;;;;4161513;28;20106;-70
2024/04/04 02:41:57;;;;;;;4.30;1.10;;;11.40;99.90;;;;;;4159708;28;20445;-70
2024/04/04 02:43:57;;;;;;;3.13;1.10;;;11.50;99.90;;;;;;4161411;28;20117;-70
2024/04/04 02:46:02;;;;;;;6.05;1.25;;;11.40;99.90;;;;;;4160808;28;20088;-70
2024/04/04 02:48:03;;;;;;;2.38;0.88;;;11.40;99.90;;;;;;4161741;28;20057;-69
2024/04/04 02:50:04;;;;;;;1.10;0.70;;;11.40;99.90;;;;;;4160805;28;20046;-70
2024/04/04 02:52:05;;;;;;;3.67;1.35;;;11.40;99.90;;;;;;4160068;28;20428;-70
2024/04/04 02:54:05;;;;;;;4.85;1.13;;;11.40;99.90;;;;;;4164485;28;20041;-69
2024/04/04 02:56:06;;;;;;;3.63;0.90;;;11.40;99.90;;;;;;4163782;28;20037;-67
2024/04/04 02:58:06;;;;;;;2.38;0.60;;;11.50;99.90;;;;;;4163551;28;20025;-67
2024/04/04 03:00:08;;;;;;;3.40;0.90;;;11.40;99.90;;;;;;4161735;28;20068;-68
2024/04/04 03:02:09;;;;;;;4.57;0.93;;;11.40;99.90;;;;;;4162931;28;20045;-67
2024/04/04 03:04:09;;;;;;;1.92;0.90;;;11.40;99.90;;;;;;4162789;28;20045;-68
2024/04/04 03:06:11;;;;;;;4.65;0.93;;;11.40;99.90;;;;;;4157791;28;20550;-68
2024/04/04 03:08:15;;;;;;;3.00;0.95;;;11.40;99.90;;;;;;4163202;28;20035;-67
2024/04/04 03:10:16;;;;;;;4.63;1.17;;;11.40;99.90;;;;;;4163803;28;20033;-67
2024/04/04 03:12:17;;;;;;;3.75;0.93;;;11.40;99.90;;;;;;4158292;28;20038;-66
2024/04/04 03:14:17;;;;;;;2.42;1.02;;;11.40;99.90;;;;;;4164461;28;20053;-66
2024/04/04 03:16:18;;;;;;;4.00;1.45;;;11.40;99.90;;;;;;4163606;28;20061;-66
2024/04/04 03:18:18;;;;;;;4.88;1.02;;;11.30;99.90;;;;;;4163735;28;20033;-69
2024/04/04 03:20:19;;;;;;;2.20;0.90;;;11.30;99.90;;;;;;4163233;28;20410;-67
2024/04/04 03:22:21;;;;;;;1.40;0.70;;;11.30;99.90;;;;;;4164297;28;20187;-66
2024/04/04 03:24:22;;;;;;;1.80;0.80;;;11.40;99.90;;;;;;4164418;28;20102;-66
2024/04/04 03:26:22;;;;;;;4.00;1.00;;;11.30;99.90;;;;;;4161907;28;20034;-66
2024/04/04 03:28:23;;;;;;;5.28;1.25;;;11.30;99.90;;;;;;4162907;28;20100;-66
2024/04/04 03:30:23;;;;;;;3.28;1.13;;;11.30;99.90;;;;;;4163513;28;21120;-66
2024/04/04 03:32:24;;;;;;;4.07;1.00;;;11.30;99.90;;;;;;4164410;28;20106;-66
2024/04/04 03:34:26;;;;;;;5.25;1.10;;;11.30;99.90;;;;;;4164400;28;20021;-67
2024/04/04 03:36:27;;;;;;;3.42;0.95;;;11.30;99.90;;;;;;4163659;28;20045;-66
2024/04/04 03:38:28;;;;;;;2.97;1.30;;;11.30;99.90;;;;;;4163831;28;20049;-66
2024/04/04 03:40:28;;;;;;;4.78;1.30;;;11.30;99.90;;;;;;4163418;28;20467;-66
2024/04/04 03:42:29;;;;;;;3.35;1.00;;;11.20;99.90;;;;;;4164131;28;20036;-66
2024/04/04 03:44:29;;;;;;;1.63;0.98;;;11.20;99.90;;;;;;4163931;28;20080;-67
2024/04/04 03:46:30;;;;;;;7.57;1.63;;;11.20;99.90;;;;;;4162620;28;20462;-67
2024/04/04 03:48:31;;;;;;;2.95;1.00;;;11.20;99.90;;;;;;4163732;28;20041;-67
2024/04/04 03:50:31;;;;;;;2.88;0.93;;;11.20;99.90;;;;;;4163637;28;20053;-67
2024/04/04 03:52:33;;;;;;;4.18;1.00;;;11.20;99.90;;;;;;4163720;28;20034;-66
2024/04/04 03:54:33;;;;;;;3.78;1.15;;;11.10;99.90;;;;;;4163477;28;20029;-66
2024/04/04 03:56:34;;;;;;;3.45;1.13;;;11.10;99.90;;;;;;4162992;28;20080;-66
2024/04/04 03:58:34;;;;;;;3.05;1.02;;;11.10;99.90;;;;;;4163217;28;20021;-66
2024/04/04 04:00:36;;;;;;;8.13;1.20;;;11.10;99.90;;;;;;4161194;28;20045;-66
2024/04/04 04:02:36;;;;;;;2.28;1.00;;;11.00;99.90;;;;;;4160549;28;20513;-67
2024/04/04 04:04:37;;;;;;;2.63;1.02;;;11.00;99.90;;;;;;4161452;28;20083;-67
2024/04/04 04:06:38;;;;;;;2.78;1.00;;;11.10;99.90;;;;;;4153138;28;20049;-61
2024/04/04 04:08:38;;;;;;;3.63;1.35;;;11.10;99.90;;;;;;4160122;28;20478;-73
2024/04/04 04:10:39;;;;;;;2.72;1.15;;;11.10;99.90;;;;;;4159558;28;20046;-73
2024/04/04 04:12:39;;;;;;;3.70;1.17;;;11.10;99.90;;;;;;4162908;28;20056;-67
2024/04/04 04:14:40;;;;;;;1.83;0.82;;;11.10;99.90;;;;;;4159763;28;20034;-67
2024/04/04 04:16:41;;;;;;;3.95;1.10;;;11.10;99.90;;;;;;4161423;28;20029;-61
2024/04/04 04:18:42;;;;;;;3.78;1.20;;;11.10;99.90;;;;;;4160327;28;20036;-72
2024/04/04 04:23:03;;;;;;;2.92;0.90;;;11.10;99.90;;;;;;4158582;28;20025;-69
2024/04/04 04:25:04;;;;;;;2.50;0.90;;;11.10;99.90;;;;;;4161105;28;20108;-69
2024/04/04 04:27:05;;;;;;;2.28;1.02;;;11.10;99.90;;;;;;4160693;28;20381;-73
2024/04/04 04:29:05;;;;;;;4.15;1.02;;;11.20;99.90;;;;;;4161522;28;20411;-67
2024/04/04 04:31:24;;;;;;;2.80;0.98;;;11.20;99.90;;;;;;4154348;28;20041;-63
2024/04/04 04:33:24;;;;;;;2.60;1.02;;;11.20;99.90;;;;;;4154780;28;20399;-64
2024/04/04 04:35:25;;;;;;;3.13;1.20;;;11.20;99.90;;;;;;4162317;28;20112;-64
2024/04/04 04:37:26;;;;;;;2.67;1.00;;;11.30;99.90;;;;;;4159762;28;20052;-64
2024/04/04 04:39:30;;;;;;;1.42;0.85;;;11.30;99.90;;;;;;4161243;28;20037;-63
2024/04/04 04:41:31;;;;;;;3.20;0.82;;;11.30;99.90;;;;;;4161752;28;20041;-61
2024/04/04 04:43:32;;;;;;;5.30;0.90;;;11.30;99.90;;;;;;4161144;28;20053;-68
2024/04/04 04:45:32;;;;;;;3.13;1.15;;;11.30;99.90;;;;;;4157387;28;20544;-67
2024/04/04 04:47:33;;;;;;;1.75;0.98;;;11.40;99.90;;;;;;4162676;28;20116;-60
2024/04/04 04:49:34;;;;;;;1.73;0.88;;;11.30;99.90;;;;;;4158131;28;20034;-60
2024/04/04 04:51:34;;;;;;;2.28;0.90;;;11.40;99.90;;;;;;4160657;28;20121;-61
2024/04/04 04:53:36;;;;;;;1.60;0.90;;;11.40;99.90;;;;;;4162265;28;20095;-66
2024/04/04 04:55:36;;;;;;;4.53;1.10;;;11.40;99.90;;;;;;4143062;28;20447;-61
2024/04/04 04:57:37;;;;;;;2.38;1.08;;;11.50;99.90;;;;;;4158143;28;20036;-64
2024/04/04 04:59:37;;;;;;;3.20;1.00;;;11.50;99.90;;;;;;4161550;28;20099;-64
2024/04/04 05:01:38;;;;;;;3.20;1.30;;;11.50;99.90;;;;;;4157950;28;20569;-68
2024/04/04 05:03:39;;;;;;;5.15;1.00;;;11.50;99.90;;;;;;4150944;28;20124;-67
2024/04/04 05:05:40;;;;;;;4.25;1.08;;;11.50;99.90;;;;;;4152800;28;20053;-68
2024/04/04 05:07:41;;;;;;;2.08;1.00;;;11.60;99.90;;;;;;4159864;28;20033;-64
2024/04/04 05:09:42;;;;;;;2.08;1.00;;;11.60;99.90;;;;;;4153398;28;20534;-66
2024/04/04 05:11:43;;;;;;;4.00;1.40;;;11.60;99.90;;;;;;4156902;28;20051;-66
2024/04/04 05:13:44;;;;;;;3.45;1.17;;;11.70;99.90;;;;;;4158649;28;20367;-65
2024/04/04 05:15:53;;;;;;;4.07;0.98;;;11.70;99.90;;;;;;4161314;28;20042;-68
2024/04/04 05:17:53;;;;;;;2.22;0.98;;;11.70;99.90;;;;;;4159684;28;20037;-67
2024/04/04 05:19:54;;;;;;;3.67;1.35;;;11.70;99.90;;;;;;4159286;28;20645;-64
2024/04/04 05:21:55;;;;;;;6.90;1.52;;;11.80;99.90;;;;;;4160429;28;20091;-61
2024/04/04 05:23:55;;;;;;;11.23;2.80;;;11.80;99.90;;;;;;4157737;28;20029;-61
2024/04/04 05:25:56;;;;;;;13.18;4.15;;;11.80;99.90;;;;;;4159527;28;20457;-66
2024/04/04 05:27:57;;;;;;;15.30;4.00;;;11.80;99.90;;;;;;4154835;28;20078;-61
2024/04/04 05:30:05;;;;;;;11.98;4.13;;;11.90;99.90;;;;;;4156769;28;20065;-61
2024/04/04 05:32:06;;;;;;;14.13;4.15;;;11.90;99.90;;;;;;4156862;28;20562;-60
2024/04/04 05:34:07;;;;;;;12.27;3.58;;;11.90;99.90;;;;;;4161564;28;20049;-60
2024/04/04 05:36:07;;;;;;;9.65;2.75;;;12.00;99.90;;;;;;4153083;28;20044;-60
2024/04/04 05:38:09;;;;;;;12.85;3.63;;;12.00;99.90;;;;;;4156638;28;20037;-60
2024/04/04 05:40:10;;;;;;;10.60;2.72;;;12.00;99.90;;;;;;4154366;28;20041;-60
2024/04/04 05:42:11;;;;;;;8.18;2.45;;;12.00;99.90;;;;;;4157444;28;20478;-60
2024/04/04 05:44:11;;;;;;;8.57;2.08;;;12.00;99.90;;;;;;4154478;28;20036;-60
2024/04/04 05:46:12;;;;;;;4.68;1.55;;;12.00;99.90;;;;;;4157212;28;20037;-60
2024/04/04 05:48:12;;;;;;;5.95;1.83;;;12.00;99.90;;;;;;4158871;28;20042;-60
2024/04/04 05:50:13;;;;;;;6.22;2.22;;;12.10;99.90;;;;;;4159713;28;20034;-60
2024/04/04 05:52:14;;;;;;;5.20;1.65;;;12.00;99.90;;;;;;4153994;28;20037;-60
2024/04/04 05:54:16;;;;;;;4.30;1.77;;;12.10;99.90;;;;;;4146088;28;20033;-60
2024/04/04 05:56:17;;;;;;;7.28;1.90;;;12.10;99.90;;;;;;4149180;28;20069;-60
2024/04/04 05:58:17;;;;;;;10.55;1.92;;;12.10;99.90;;;;;;4154653;28;20045;-60
2024/04/04 06:00:18;;;;;;;5.70;1.88;;;12.10;99.90;;;;;;4152802;28;20083;-60
2024/04/04 06:02:19;;;;;;;4.90;1.60;;;12.10;99.90;;;;;;4160933;28;20390;-60
2024/04/04 06:04:20;;;;;;;7.45;1.90;;;12.20;99.90;;;;;;4159479;28;20043;-60
2024/04/04 06:06:21;;;;;;;4.53;1.55;;;12.20;99.90;;;;;;4151688;28;20128;-65
2024/04/04 06:08:25;;;;;;;4.10;1.35;;;12.20;99.90;;;;;;4158172;28;20038;-61
2024/04/04 06:10:25;;;;;;;6.47;1.45;;;12.20;99.90;;;;;;4154265;28;20509;-60
2024/04/04 06:12:26;;;;;;;5.32;1.30;;;12.20;99.90;;;;;;4155582;28;20045;-60
2024/04/04 06:14:27;;;;;;;3.58;1.30;;;12.20;99.90;;;;;;4158145;28;20126;-61
2024/04/04 06:16:27;;;;;;;5.10;1.60;;;12.20;99.90;;;;;;4154289;28;20436;-61
2024/04/04 06:18:28;;;;;;;3.92;1.42;;;12.20;99.90;;;;;;4154456;28;20042;-61
2024/04/04 06:20:29;;;;;;;4.47;1.70;;;12.20;99.90;;;;;;4154209;28;21158;-60
2024/04/04 06:22:30;;;;;;;6.45;1.98;;;12.20;99.90;;;;;;4152989;28;20037;-60
2024/04/04 06:24:30;;;;;;;5.25;2.10;;;12.20;99.90;;;;;;4156933;28;20041;-67
2024/04/04 06:26:31;;;;;;;4.60;1.95;;;12.20;99.90;;;;;;4157684;28;20041;-64
2024/04/04 06:28:32;;;;;;;5.18;2.17;;;12.20;99.90;;;;;;4155751;28;20169;-64
2024/04/04 06:30:33;;;;;;;7.35;2.00;;;12.20;99.90;;;;;;4158393;28;20045;-64
2024/04/04 06:32:33;;;;;;;8.68;2.20;;;12.30;99.90;;;;;;4156633;28;20501;-64
2024/04/04 06:34:34;;;;;;;3.67;1.50;;;12.30;99.90;;;;;;4153811;28;20112;-64
2024/04/04 06:36:35;;;;;;;6.88;2.17;;;12.30;99.90;;;;;;4160001;28;20037;-64
2024/04/04 06:38:35;;;;;;;5.93;1.70;;;12.30;99.90;;;;;;4151868;28;20497;-64
2024/04/04 06:40:39;;;;;;;4.97;1.52;;;12.30;99.90;;;;;;4155857;28;20397;-64
2024/04/04 06:42:40;;;;;;;9.40;1.65;;;12.30;99.90;;;;;;4173954;28;20432;-64
2024/04/04 06:44:41;;;;;;;6.15;1.88;;;12.40;99.90;;;;;;4152948;28;20405;-64
2024/04/04 06:46:42;;;;;;;8.60;2.13;;;12.40;99.90;;;;;;4156295;28;20037;-63
2024/04/04 06:48:42;;;;;;;5.53;1.70;;;12.40;99.90;;;;;;4151747;28;20034;-63
2024/04/04 06:50:43;;;;;;;7.25;1.70;;;12.40;99.90;;;;;;4152674;28;20044;-64
2024/04/04 06:52:44;;;;;;;4.00;1.30;;;12.40;99.90;;;;;;4158837;28;20036;-64
2024/04/04 06:54:44;;;;;;;4.30;1.50;;;12.40;99.90;;;;;;4156561;28;20202;-64
2024/04/04 06:56:45;;;;;;;7.18;1.83;;;12.40;99.90;;;;;;4157338;28;20086;-63
2024/04/04 06:58:45;;;;;;;4.03;1.80;;;12.50;99.90;;;;;;4170954;28;20211;-64
2024/04/04 07:00:55;;;;;;;3.00;1.50;;;12.50;99.90;;;;;;4152915;28;20064;-64
2024/04/04 07:02:56;;;;;;;4.22;1.50;;;12.50;99.90;;;;;;4157640;28;20519;-64
2024/04/04 07:04:57;;;;;;;7.13;1.73;;;12.60;99.90;;;;;;4160164;28;20028;-64
2024/04/04 07:06:58;;;;;;;3.78;1.45;;;12.60;99.90;;;;;;4159635;28;20059;-64
2024/04/04 07:08:58;;;;;;;7.57;1.83;;;12.60;99.90;;;;;;4154018;28;20041;-64
2024/04/04 07:11:00;;;;;;;5.30;1.40;;;12.70;99.90;;;;;;4155865;28;20028;-64
2024/04/04 07:13:01;;;;;;;3.90;1.30;;;12.70;99.90;;;;;;4160951;28;20322;-64
2024/04/04 07:15:05;;;;;;;3.40;1.02;;;12.70;99.90;;;;;;4155614;28;20040;-64
2024/04/04 07:17:06;;;;;;;4.70;1.20;;;12.70;99.90;;;;;;4152067;28;20212;-64
2024/04/04 07:19:08;;;;;;;3.38;1.13;;;12.80;99.90;;;;;;4154389;28;20060;-64
2024/04/04 07:21:08;;;;;;;3.53;1.00;;;12.80;99.90;;;;;;4152129;28;20053;-64
2024/04/04 07:23:09;;;;;;;4.82;1.20;;;12.80;99.90;;;;;;4155937;28;20410;-64
2024/04/04 07:25:10;;;;;;;3.17;0.77;;;12.80;99.90;;;;;;4149040;28;20045;-65
2024/04/04 07:27:10;;;;;;;7.18;1.45;;;12.90;99.90;;;;;;4150973;28;20037;-64
2024/04/04 07:29:11;;;;;;;5.32;1.48;;;12.90;99.90;;;;;;4154589;28;21656;-64
2024/04/04 07:31:12;;;;;;;3.80;1.05;;;12.90;99.90;;;;;;4157448;28;20038;-63
2024/04/04 07:33:13;;;;;;;2.90;1.08;;;12.90;99.90;;;;;;4156766;28;20026;-64
2024/04/04 07:35:14;;;;;;;3.65;1.25;;;12.90;99.90;;;;;;4156844;28;20033;-60
2024/04/04 07:37:15;;;;;;;1.73;0.82;;;12.90;99.90;;;;;;4158118;28;20061;-59
2024/04/04 07:39:16;;;;;;;2.72;0.90;;;12.90;99.90;;;;;;4158596;28;20510;-59
2024/04/04 07:41:17;;;;;;;3.40;0.73;;;12.90;99.90;;;;;;4156720;28;20041;-59
2024/04/04 07:43:18;;;;;;;3.97;1.00;;;12.90;99.90;;;;;;4155812;28;20064;-59
2024/04/04 07:45:19;;;;;;;3.67;0.90;;;12.90;99.90;;;;;;4154248;28;20495;-59
2024/04/04 07:47:21;;;;;;;1.83;0.65;;;12.90;99.90;;;;;;4157918;28;20026;-59
2024/04/04 07:49:22;;;;;;;4.45;0.93;;;12.90;99.90;;;;;;4153544;28;20041;-59
2024/04/04 07:51:23;;;;;;;3.15;0.85;;;12.90;99.90;;;;;;4159158;28;20037;-60
2024/04/04 07:53:24;;;;;;;5.70;0.68;;;12.90;99.90;;;;;;4145047;28;20033;-60
2024/04/04 07:55:25;;;;;;;4.45;1.10;;;12.90;99.90;;;;;;4156952;28;20068;-60
2024/04/04 07:57:26;;;;;;;2.05;0.65;;;12.90;99.90;;;;;;4158330;28;20073;-59
2024/04/04 07:59:26;;;;;;;3.35;0.70;;;12.90;99.90;;;;;;4155463;28;20559;-59
2024/04/04 08:01:27;;;;;;;2.75;0.85;;;12.90;99.90;;;;;;4153871;28;20049;-59
2024/04/04 08:03:28;;;;;;;3.45;0.80;;;12.90;99.90;;;;;;4156433;28;20041;-60
2024/04/04 08:05:29;;;;;;;2.20;0.88;;;12.90;99.90;;;;;;4152785;28;20045;-60
2024/04/04 08:07:36;;;;;;;1.70;0.55;;;12.90;99.90;;;;;;4153753;28;20049;-60
2024/04/04 08:09:37;;;;;;;1.25;0.70;;;12.90;99.90;;;;;;4155020;28;20481;-59
2024/04/04 08:11:38;;;;;;;1.48;0.55;;;12.90;99.90;;;;;;4153986;28;20304;-60
2024/04/04 08:13:39;;;;;;;1.45;0.70;;;12.90;99.90;;;;;;4155902;28;20045;-59
2024/04/04 08:15:40;;;;;;;2.70;1.10;;;12.90;99.90;;;;;;4145914;28;20037;-59
2024/04/04 08:17:46;;;;;;;2.03;0.55;;;12.90;99.90;;;;;;4154115;28;20099;-60
2024/04/04 08:19:47;;;;;;;1.65;0.60;;;12.90;99.90;;;;;;4153579;28;20045;-60
2024/04/04 08:21:48;;;;;;;3.90;1.17;;;12.90;99.90;;;;;;4149350;28;20045;-60
2024/04/04 08:23:49;;;;;;;2.80;0.85;;;12.90;99.90;;;;;;4151229;28;20198;-60
2024/04/04 08:25:55;;;;;;;1.65;0.70;;;12.90;99.90;;;;;;4149313;28;20044;-60
2024/04/04 08:27:55;;;;;;;2.13;0.82;;;12.90;99.90;;;;;;4134310;28;20045;-60
2024/04/04 08:29:56;;;;;;;2.35;0.68;;;13.00;99.90;;;;;;4155970;28;20034;-60
2024/04/04 08:31:57;;;;;;;1.08;0.50;;;12.90;99.90;;;;;;4157023;28;20080;-60
2024/04/04 08:33:58;;;;;;;1.15;0.63;;;12.90;99.90;;;;;;4151362;28;20025;-60
2024/04/04 08:36:01;;;;;;;0.73;0.57;;;13.00;99.90;;;;;;4153862;28;20576;-60
2024/04/04 08:38:01;;;;;;;2.42;0.63;;;13.00;99.90;;;;;;4158500;28;20041;-60
2024/04/04 08:40:03;;;;;;;2.10;0.57;;;12.90;99.90;;;;;;4154585;28;20033;-63
2024/04/04 08:42:05;;;;;;;3.33;0.90;;;13.00;99.90;;;;;;4156660;28;20152;-60
2024/04/04 08:44:08;;;;;;;2.58;0.88;;;13.00;99.90;;;;;;4153445;28;20283;-60
2024/04/04 08:46:10;;;;;;;2.85;0.82;;;13.00;99.90;;;;;;4152942;28;20406;-67
2024/04/04 08:48:13;;;;;;;;;;;13.00;99.90;;;;;;4160437;28;20045;-67
2024/04/04 08:50:14;;;;;;;4.60;0.82;;;13.00;99.90;;;;;;4155932;28;19932;-67
2024/04/04 08:52:15;;;;;;;2.65;0.70;;;13.00;99.90;;;;;;4157387;28;20565;-67
2024/04/04 08:54:17;;;;;;;3.03;0.73;;;13.00;99.90;;;;;;4147894;28;20045;-67
2024/04/04 08:56:18;;;;;;;;;;;13.00;99.90;;;;;;4156184;28;20198;-60
2024/04/04 08:58:19;;;;;;;2.55;0.70;;;13.00;99.90;;;;;;4155695;28;19975;-60
2024/04/04 09:00:20;;;;;;;2.50;0.98;;;13.00;99.90;;;;;;4150410;28;20040;-60
2024/04/04 09:02:21;;;;;;;2.33;0.70;;;13.00;99.90;;;;;;4152734;28;20144;-60
2024/04/04 09:04:26;;;;;;;2.92;0.68;;;13.00;99.90;;;;;;4152141;28;20518;-60
2024/04/04 09:06:30;;;;;;;1.63;0.73;;;13.00;99.90;;;;;;4149805;28;20505;-59
2024/04/04 09:08:31;;;;;;;0.88;0.57;;;13.00;99.90;;;;;;4149177;28;20498;-62
2024/04/04 09:10:32;;;;;;;1.90;0.50;;;13.10;99.90;;;;;;4147310;28;20060;-61
2024/04/04 09:12:33;;;;;;;1.58;0.52;;;13.00;99.90;;;;;;4151538;28;20151;-60
2024/04/04 09:14:35;;;;;;;0.98;0.40;;;13.00;99.90;;;;;;4154400;28;20124;-60
2024/04/04 09:16:37;;;;;;;0.85;0.40;;;13.10;99.90;;;;;;4151598;28;20473;-60
2024/04/04 09:18:37;;;;;;;0.75;0.40;;;13.10;99.90;;;;;;4154699;28;20101;-60
2024/04/04 09:20:40;;;;;;;0.63;0.40;;;13.10;99.90;;;;;;4152697;28;20371;-60
2024/04/04 09:22:40;;;;;;;2.17;0.80;;;13.20;99.90;;;;;;4150342;28;20104;-60
2024/04/04 09:24:41;;;;;;;3.78;0.73;;;13.20;99.90;;;;;;4151913;28;20462;-60
2024/04/04 09:26:43;;;;;;;1.00;0.50;;;13.30;99.90;;;;;;4151042;28;20042;-60
2024/04/04 09:28:44;;;;;;;1.67;0.77;;;13.30;99.90;;;;;;4150950;28;20044;-60
2024/04/04 09:30:46;;;;;;;1.17;0.60;;;13.30;99.90;;;;;;4150741;28;20460;-60
2024/04/04 09:32:47;;;;;;;0.68;0.63;;;13.30;99.90;;;;;;4154372;28;20132;-60
2024/04/04 09:34:50;;;;;;;1.15;0.50;;;13.30;99.90;;;;;;4147735;28;20033;-60
2024/04/04 09:36:52;;;;;;;2.83;0.90;;;13.30;99.90;;;;;;4152933;28;20033;-60
2024/04/04 09:38:54;;;;;;;3.13;0.70;;;13.40;99.90;;;;;;4152729;28;20493;-60
2024/04/04 09:40:55;;;;;;;1.88;0.68;;;13.30;99.90;;;;;;4150543;28;20459;-60
2024/04/04 09:43:00;;;;;;;1.42;0.70;;;13.30;99.90;;;;;;4148215;28;20538;-60
2024/04/04 09:45:01;;;;;;;2.88;0.90;;;13.40;99.90;;;;;;4150813;28;20434;-61
2024/04/04 09:47:04;;;;;;;1.92;0.63;;;13.30;99.90;;;;;;4151431;28;20062;-61
2024/04/04 09:49:08;;;;;;;2.03;0.60;;;13.30;99.90;;;;;;4153526;28;20053;-60
2024/04/04 09:51:09;;;;;;;2.17;0.32;;;13.30;99.90;;;;;;4153604;28;20030;-60
2024/04/04 09:53:10;;;;;;;2.63;0.80;;;13.30;99.90;;;;;;4152305;28;20041;-60
2024/04/04 09:55:16;;;;;;;1.92;0.68;;;13.40;99.90;;;;;;4151889;28;20133;-65
2024/04/04 09:57:18;;;;;;;1.92;0.60;;;13.30;99.90;;;;;;4152728;28;20089;-60
2024/04/04 09:59:30;;;;;;;2.55;0.75;;;13.40;99.90;;;;;;4153802;28;20437;-60
2024/04/04 10:01:35;;;;;;;1.38;0.65;;;13.40;99.90;;;;;;4182176;28;20036;-60
2024/04/04 10:03:36;;;;;;;4.30;0.70;;;13.50;99.90;;;;;;4153353;28;20065;-60
2024/04/04 10:05:38;;;;;;;1.88;0.80;;;13.50;99.90;;;;;;4156278;28;20084;-60
2024/04/04 10:07:38;;;;;;;2.00;0.90;;;13.50;99.90;;;;;;4151784;28;20045;-60
2024/04/04 10:09:41;;;;;;;1.20;0.40;;;13.50;99.90;;;;;;4152961;28;20514;-60
2024/04/04 10:11:42;;;;;;;1.95;0.60;;;13.60;99.90;;;;;;4150484;28;20052;-60
2024/04/04 10:13:51;;;;;;;2.90;0.90;;;13.60;99.90;;;;;;4147617;28;20057;-59
2024/04/04 10:15:52;;;;;;;3.30;0.88;;;13.50;99.90;;;;;;4149621;28;20093;-66
2024/04/04 10:17:53;;;;;;;2.85;0.70;;;13.60;99.90;;;;;;4161042;28;20171;-66
2024/04/04 10:19:53;;;;;;;2.13;0.70;;;13.50;99.90;;;;;;4154517;28;20521;-66
2024/04/04 10:21:55;;;;;;;2.10;0.82;;;13.60;99.90;;;;;;4152988;28;20033;-68
2024/04/04 10:24:00;;;;;;;2.53;0.47;;;13.50;99.90;;;;;;4153933;28;20041;-66
2024/04/04 10:26:07;;;;;;;1.05;0.60;;;13.60;99.90;;;;;;4154876;28;20045;-66
2024/04/04 10:28:09;;;;;;;1.13;0.55;;;13.60;99.90;;;;;;4156732;28;20032;-66
2024/04/04 10:30:10;;;;;;;2.08;0.77;;;13.70;99.90;;;;;;4155071;28;20401;-67
2024/04/04 10:32:11;;;;;;;2.53;0.63;;;13.70;99.90;;;;;;4156646;28;20065;-65
2024/04/04 10:34:12;;;;;;;1.52;0.73;;;13.70;99.90;;;;;;4155511;28;20091;-65